sensor_id;sensor_type;location;lat;lon;timestamp;pressure;altitude;pressure_sealevel;temperature;humidity
78845;BME280;68195;50.854;2.860;2023-05-07T00:00:50;101410.47;;;15.52;79.40
78845;BME280;68195;50.854;2.860;2023-05-07T00:03:18;101409.44;;;15.54;79.80
78845;BME280;68195;50.854;2.860;2023-05-07T00:05:45;101361.28;;;15.24;79.95
78845;BME280;68195;50.854;2.860;2023-05-07T00:08:14;101408.69;;;15.52;79.66
78845;BME280;68195;50.854;2.860;2023-05-07T00:10:41;101399.38;;;15.47;80.03
78845;BME280;68195;50.854;2.860;2023-05-07T00:13:07;101420.09;;;15.53;80.17
78845;BME280;68195;50.854;2.860;2023-05-07T00:15:32;101433.63;;;15.61;80.53
78845;BME280;68195;50.854;2.860;2023-05-07T00:18:00;101368.41;;;15.22;80.57
78845;BME280;68195;50.854;2.860;2023-05-07T00:20:30;101396.28;;;15.40;80.22
78845;BME280;68195;50.854;2.860;2023-05-07T00:22:55;101434.66;;;15.58;80.47
78845;BME280;68195;50.854;2.860;2023-05-07T00:25:23;101435.50;;;15.59;80.30
78845;BME280;68195;50.854;2.860;2023-05-07T00:27:51;101369.84;;;15.27;80.58
78845;BME280;68195;50.854;2.860;2023-05-07T00:30:19;101402.19;;;15.44;80.66
78845;BME280;68195;50.854;2.860;2023-05-07T00:32:44;101355.06;;;15.10;80.71
78845;BME280;68195;50.854;2.860;2023-05-07T00:35:12;101392.13;;;15.36;81.08
78845;BME280;68195;50.854;2.860;2023-05-07T00:37:38;101367.56;;;15.21;81.05
78845;BME280;68195;50.854;2.860;2023-05-07T00:40:06;101345.47;;;15.09;80.59
78845;BME280;68195;50.854;2.860;2023-05-07T00:42:34;101348.97;;;15.10;81.08
78845;BME280;68195;50.854;2.860;2023-05-07T00:45:02;101417.91;;;15.45;81.17
78845;BME280;68195;50.854;2.860;2023-05-07T00:47:30;101395.41;;;15.25;82.16
78845;BME280;68195;50.854;2.860;2023-05-07T00:49:56;101399.81;;;15.25;81.39
78845;BME280;68195;50.854;2.860;2023-05-07T00:52:25;101409.03;;;15.32;82.03
78845;BME280;68195;50.854;2.860;2023-05-07T00:54:53;101377.22;;;15.06;82.15
78845;BME280;68195;50.854;2.860;2023-05-07T00:57:21;101380.88;;;15.04;82.34
78845;BME280;68195;50.854;2.860;2023-05-07T00:59:51;101406.34;;;15.33;82.28
78845;BME280;68195;50.854;2.860;2023-05-07T01:02:17;101400.47;;;15.28;82.64
78845;BME280;68195;50.854;2.860;2023-05-07T01:04:44;101381.78;;;15.18;83.03
78845;BME280;68195;50.854;2.860;2023-05-07T01:07:13;101388.44;;;15.24;83.02
78845;BME280;68195;50.854;2.860;2023-05-07T01:09:38;101355.91;;;15.11;82.54
78845;BME280;68195;50.854;2.860;2023-05-07T01:12:10;101366.22;;;15.14;82.62
78845;BME280;68195;50.854;2.860;2023-05-07T01:14:35;101336.44;;;14.99;82.89
78845;BME280;68195;50.854;2.860;2023-05-07T01:17:01;101361.84;;;15.14;83.42
78845;BME280;68195;50.854;2.860;2023-05-07T01:19:28;101351.00;;;15.05;82.99
78845;BME280;68195;50.854;2.860;2023-05-07T01:22:02;101390.03;;;15.27;83.17
78845;BME280;68195;50.854;2.860;2023-05-07T01:24:31;101259.63;;;14.48;82.58
78845;BME280;68195;50.854;2.860;2023-05-07T01:26:56;101403.38;;;15.24;82.97
78845;BME280;68195;50.854;2.860;2023-05-07T01:29:21;101387.19;;;15.15;83.52
78845;BME280;68195;50.854;2.860;2023-05-07T01:31:50;101371.28;;;15.03;83.06
78845;BME280;68195;50.854;2.860;2023-05-07T01:34:17;101414.75;;;15.24;83.81
78845;BME280;68195;50.854;2.860;2023-05-07T01:36:46;101379.66;;;15.09;83.59
78845;BME280;68195;50.854;2.860;2023-05-07T01:39:12;101351.81;;;14.91;83.35
78845;BME280;68195;50.854;2.860;2023-05-07T01:41:38;101362.25;;;14.92;83.48
78845;BME280;68195;50.854;2.860;2023-05-07T01:44:05;101373.81;;;15.04;83.69
78845;BME280;68195;50.854;2.860;2023-05-07T01:46:31;101407.69;;;15.10;84.72
78845;BME280;68195;50.854;2.860;2023-05-07T01:49:00;101392.31;;;15.03;84.44
78845;BME280;68195;50.854;2.860;2023-05-07T01:51:33;101350.09;;;14.75;85.13
78845;BME280;68195;50.854;2.860;2023-05-07T01:53:59;101384.56;;;14.85;85.74
78845;BME280;68195;50.854;2.860;2023-05-07T01:56:26;101322.28;;;14.55;84.90
78845;BME280;68195;50.854;2.860;2023-05-07T01:58:54;101363.03;;;14.79;84.78
78845;BME280;68195;50.854;2.860;2023-05-07T02:01:22;101394.94;;;15.03;83.92
78845;BME280;68195;50.854;2.860;2023-05-07T02:03:47;101373.25;;;14.99;84.17
78845;BME280;68195;50.854;2.860;2023-05-07T02:06:15;101385.13;;;15.06;84.35
78845;BME280;68195;50.854;2.860;2023-05-07T02:08:43;101346.81;;;14.86;84.13
78845;BME280;68195;50.854;2.860;2023-05-07T02:11:10;101295.91;;;14.57;83.88
78845;BME280;68195;50.854;2.860;2023-05-07T02:13:38;101331.75;;;14.74;83.86
78845;BME280;68195;50.854;2.860;2023-05-07T02:16:07;101365.44;;;14.97;84.11
78845;BME280;68195;50.854;2.860;2023-05-07T02:18:35;101395.28;;;15.12;83.89
78845;BME280;68195;50.854;2.860;2023-05-07T02:21:01;101341.09;;;14.80;83.85
78845;BME280;68195;50.854;2.860;2023-05-07T02:23:26;101381.81;;;15.03;83.76
78845;BME280;68195;50.854;2.860;2023-05-07T02:25:54;101308.34;;;14.53;83.68
78845;BME280;68195;50.854;2.860;2023-05-07T02:28:19;101351.22;;;14.86;83.75
78845;BME280;68195;50.854;2.860;2023-05-07T02:30:47;101347.25;;;14.79;84.01
78845;BME280;68195;50.854;2.860;2023-05-07T02:33:17;101381.31;;;14.96;84.09
78845;BME280;68195;50.854;2.860;2023-05-07T02:35:45;101399.19;;;15.05;84.54
78845;BME280;68195;50.854;2.860;2023-05-07T02:38:11;101380.00;;;14.89;84.38
78845;BME280;68195;50.854;2.860;2023-05-07T02:40:36;101207.88;;;13.88;84.77
78845;BME280;68195;50.854;2.860;2023-05-07T02:43:07;101406.34;;;15.03;84.34
78845;BME280;68195;50.854;2.860;2023-05-07T02:45:33;101408.22;;;15.01;84.55
78845;BME280;68195;50.854;2.860;2023-05-07T02:47:58;101376.19;;;14.79;84.41
78845;BME280;68195;50.854;2.860;2023-05-07T02:50:29;101335.84;;;14.48;85.01
78845;BME280;68195;50.854;2.860;2023-05-07T02:52:57;101372.22;;;14.71;85.32
78845;BME280;68195;50.854;2.860;2023-05-07T02:55:23;101423.75;;;14.90;85.48
78845;BME280;68195;50.854;2.860;2023-05-07T02:57:48;101368.75;;;14.55;85.04
78845;BME280;68195;50.854;2.860;2023-05-07T03:00:15;101418.81;;;14.84;85.05
78845;BME280;68195;50.854;2.860;2023-05-07T03:02:44;101392.91;;;14.62;85.01
78845;BME280;68195;50.854;2.860;2023-05-07T03:05:12;101399.63;;;14.67;85.66
78845;BME280;68195;50.854;2.860;2023-05-07T03:07:39;101404.03;;;14.67;85.24
78845;BME280;68195;50.854;2.860;2023-05-07T03:10:05;101392.06;;;14.61;85.07
78845;BME280;68195;50.854;2.860;2023-05-07T03:12:35;101396.31;;;14.64;85.31
78845;BME280;68195;50.854;2.860;2023-05-07T03:15:00;101420.88;;;14.79;85.16
78845;BME280;68195;50.854;2.860;2023-05-07T03:17:30;101397.25;;;14.63;85.41
78845;BME280;68195;50.854;2.860;2023-05-07T03:19:56;101367.03;;;14.38;85.56
78845;BME280;68195;50.854;2.860;2023-05-07T03:22:23;101385.22;;;14.59;84.94
78845;BME280;68195;50.854;2.860;2023-05-07T03:24:49;101374.03;;;14.55;85.24
78845;BME280;68195;50.854;2.860;2023-05-07T03:27:14;101318.94;;;14.22;85.41
78845;BME280;68195;50.854;2.860;2023-05-07T03:29:42;101331.28;;;14.35;84.81
78845;BME280;68195;50.854;2.860;2023-05-07T03:32:10;101346.91;;;14.39;85.22
78845;BME280;68195;50.854;2.860;2023-05-07T03:34:35;101397.25;;;14.63;85.15
78845;BME280;68195;50.854;2.860;2023-05-07T03:37:05;101318.81;;;14.23;85.41
78845;BME280;68195;50.854;2.860;2023-05-07T03:39:33;101357.78;;;14.47;85.61
78845;BME280;68195;50.854;2.860;2023-05-07T03:41:59;101371.53;;;14.52;85.03
78845;BME280;68195;50.854;2.860;2023-05-07T03:44:27;101368.06;;;14.51;85.51
78845;BME280;68195;50.854;2.860;2023-05-07T03:46:55;101304.53;;;14.13;85.46
78845;BME280;68195;50.854;2.860;2023-05-07T03:49:21;101366.38;;;14.50;85.68
78845;BME280;68195;50.854;2.860;2023-05-07T03:51:48;101411.31;;;14.77;85.95
78845;BME280;68195;50.854;2.860;2023-05-07T03:54:14;101417.50;;;14.76;86.17
78845;BME280;68195;50.854;2.860;2023-05-07T03:56:42;101356.53;;;14.38;86.03
78845;BME280;68195;50.854;2.860;2023-05-07T03:59:07;101387.75;;;14.60;85.94
78845;BME280;68195;50.854;2.860;2023-05-07T04:01:32;101413.34;;;14.72;85.87
78845;BME280;68195;50.854;2.860;2023-05-07T04:03:58;101391.88;;;14.64;85.55
78845;BME280;68195;50.854;2.860;2023-05-07T04:06:26;101417.69;;;14.73;85.77
78845;BME280;68195;50.854;2.860;2023-05-07T04:08:52;101414.44;;;14.68;85.51
78845;BME280;68195;50.854;2.860;2023-05-07T04:11:17;101419.22;;;14.77;86.20
78845;BME280;68195;50.854;2.860;2023-05-07T04:13:45;101422.94;;;14.73;85.86
78845;BME280;68195;50.854;2.860;2023-05-07T04:16:13;101435.75;;;14.80;85.78
78845;BME280;68195;50.854;2.860;2023-05-07T04:18:43;101438.38;;;14.80;85.72
78845;BME280;68195;50.854;2.860;2023-05-07T04:21:19;101413.03;;;14.63;85.65
78845;BME280;68195;50.854;2.860;2023-05-07T04:23:45;101396.38;;;14.46;85.67
78845;BME280;68195;50.854;2.860;2023-05-07T04:26:14;101451.53;;;14.80;86.09
78845;BME280;68195;50.854;2.860;2023-05-07T04:28:40;101447.09;;;14.80;85.80
78845;BME280;68195;50.854;2.860;2023-05-07T04:31:08;101444.56;;;14.79;86.20
78845;BME280;68195;50.854;2.860;2023-05-07T04:33:33;101439.47;;;14.75;85.89
78845;BME280;68195;50.854;2.860;2023-05-07T04:36:02;101437.59;;;14.77;86.05
78845;BME280;68195;50.854;2.860;2023-05-07T04:38:30;101437.69;;;14.76;86.12
78845;BME280;68195;50.854;2.860;2023-05-07T04:41:05;101404.69;;;14.54;85.62
78845;BME280;68195;50.854;2.860;2023-05-07T04:43:31;101442.88;;;14.77;86.00
78845;BME280;68195;50.854;2.860;2023-05-07T04:45:57;101451.59;;;14.78;85.75
78845;BME280;68195;50.854;2.860;2023-05-07T04:48:27;101397.91;;;14.50;86.49
78845;BME280;68195;50.854;2.860;2023-05-07T04:50:55;101413.66;;;14.50;85.66
78845;BME280;68195;50.854;2.860;2023-05-07T04:53:20;101409.25;;;14.51;85.70
78845;BME280;68195;50.854;2.860;2023-05-07T04:55:46;101416.06;;;14.55;85.84
78845;BME280;68195;50.854;2.860;2023-05-07T04:58:12;101433.63;;;14.70;86.16
78845;BME280;68195;50.854;2.860;2023-05-07T05:00:40;101383.84;;;14.35;85.55
78845;BME280;68195;50.854;2.860;2023-05-07T05:03:10;101423.44;;;14.64;85.67
78845;BME280;68195;50.854;2.860;2023-05-07T05:05:36;101448.03;;;14.79;85.72
78845;BME280;68195;50.854;2.860;2023-05-07T05:08:03;101459.41;;;14.80;85.85
78845;BME280;68195;50.854;2.860;2023-05-07T05:10:29;101462.03;;;14.80;86.46
78845;BME280;68195;50.854;2.860;2023-05-07T05:12:56;101415.19;;;14.54;85.79
78845;BME280;68195;50.854;2.860;2023-05-07T05:15:22;101461.16;;;14.79;86.28
78845;BME280;68195;50.854;2.860;2023-05-07T05:17:49;101423.28;;;14.51;86.02
78845;BME280;68195;50.854;2.860;2023-05-07T05:20:15;101462.88;;;14.80;86.32
78845;BME280;68195;50.854;2.860;2023-05-07T05:22:41;101469.94;;;14.80;87.32
78845;BME280;68195;50.854;2.860;2023-05-07T05:25:07;101437.78;;;14.59;86.38
78845;BME280;68195;50.854;2.860;2023-05-07T05:27:32;101464.81;;;14.76;86.66
78845;BME280;68195;50.854;2.860;2023-05-07T05:29:58;101469.16;;;14.77;85.97
78845;BME280;68195;50.854;2.860;2023-05-07T05:32:23;101395.63;;;14.28;86.38
78845;BME280;68195;50.854;2.860;2023-05-07T05:34:48;101451.00;;;14.57;86.21
78845;BME280;68195;50.854;2.860;2023-05-07T05:37:16;101430.47;;;14.48;85.75
78845;BME280;68195;50.854;2.860;2023-05-07T05:39:41;101484.00;;;14.79;86.62
78845;BME280;68195;50.854;2.860;2023-05-07T05:42:07;101434.88;;;14.47;86.30
78845;BME280;68195;50.854;2.860;2023-05-07T05:44:32;101471.94;;;14.74;86.57
78845;BME280;68195;50.854;2.860;2023-05-07T05:46:58;101460.84;;;14.69;87.09
78845;BME280;68195;50.854;2.860;2023-05-07T05:49:26;101486.47;;;14.82;86.68
78845;BME280;68195;50.854;2.860;2023-05-07T05:51:51;101489.09;;;14.82;87.45
78845;BME280;68195;50.854;2.860;2023-05-07T05:54:16;101451.69;;;14.61;87.02
78845;BME280;68195;50.854;2.860;2023-05-07T05:56:44;101447.63;;;14.55;87.18
78845;BME280;68195;50.854;2.860;2023-05-07T05:59:10;101499.25;;;14.88;87.02
78845;BME280;68195;50.854;2.860;2023-05-07T06:01:38;101491.22;;;14.91;86.99
78845;BME280;68195;50.854;2.860;2023-05-07T06:04:05;101492.31;;;14.87;86.82
78845;BME280;68195;50.854;2.860;2023-05-07T06:06:33;101500.00;;;14.90;87.48
78845;BME280;68195;50.854;2.860;2023-05-07T06:08:59;101431.75;;;14.41;87.15
78845;BME280;68195;50.854;2.860;2023-05-07T06:11:24;101502.81;;;14.87;87.89
78845;BME280;68195;50.854;2.860;2023-05-07T06:13:52;101493.59;;;14.80;88.14
78845;BME280;68195;50.854;2.860;2023-05-07T06:16:18;101498.66;;;14.83;87.95
78845;BME280;68195;50.854;2.860;2023-05-07T06:18:43;101503.59;;;14.89;88.40
78845;BME280;68195;50.854;2.860;2023-05-07T06:21:10;101477.47;;;14.70;88.45
78845;BME280;68195;50.854;2.860;2023-05-07T06:23:35;101507.13;;;14.88;88.49
78845;BME280;68195;50.854;2.860;2023-05-07T06:26:03;101487.91;;;14.71;88.31
78845;BME280;68195;50.854;2.860;2023-05-07T06:28:30;101447.06;;;14.48;88.32
78845;BME280;68195;50.854;2.860;2023-05-07T06:31:21;101513.94;;;14.92;88.48
78845;BME280;68195;50.854;2.860;2023-05-07T06:33:49;101483.91;;;14.80;88.45
78845;BME280;68195;50.854;2.860;2023-05-07T06:36:17;101496.81;;;14.85;88.45
78845;BME280;68195;50.854;2.860;2023-05-07T06:38:42;101458.63;;;14.62;88.32
78845;BME280;68195;50.854;2.860;2023-05-07T06:41:08;101497.66;;;14.85;88.73
78845;BME280;68195;50.854;2.860;2023-05-07T06:43:33;101507.31;;;15.01;88.54
78845;BME280;68195;50.854;2.860;2023-05-07T06:45:58;101492.22;;;14.88;88.92
78845;BME280;68195;50.854;2.860;2023-05-07T06:48:26;101501.38;;;14.97;88.69
78845;BME280;68195;50.854;2.860;2023-05-07T06:50:51;101524.47;;;15.08;88.33
78845;BME280;68195;50.854;2.860;2023-05-07T06:55:49;101503.56;;;15.05;88.40
78845;BME280;68195;50.854;2.860;2023-05-07T06:58:15;101521.22;;;15.18;88.59
78845;BME280;68195;50.854;2.860;2023-05-07T07:00:40;101504.06;;;15.11;88.45
78845;BME280;68195;50.854;2.860;2023-05-07T07:03:06;101496.38;;;15.08;88.30
78845;BME280;68195;50.854;2.860;2023-05-07T07:05:31;101515.00;;;15.20;88.55
78845;BME280;68195;50.854;2.860;2023-05-07T07:07:57;101521.03;;;15.22;88.63
78845;BME280;68195;50.854;2.860;2023-05-07T07:10:22;101502.19;;;15.13;88.18
78845;BME280;68195;50.854;2.860;2023-05-07T07:12:49;101529.34;;;15.30;87.99
78845;BME280;68195;50.854;2.860;2023-05-07T07:15:17;101501.94;;;15.18;88.80
78845;BME280;68195;50.854;2.860;2023-05-07T07:17:45;101516.34;;;15.27;88.23
78845;BME280;68195;50.854;2.860;2023-05-07T07:20:10;101494.41;;;15.12;88.02
78845;BME280;68195;50.854;2.860;2023-05-07T07:22:38;101509.97;;;15.31;88.08
78845;BME280;68195;50.854;2.860;2023-05-07T07:25:06;101492.28;;;15.18;88.43
78845;BME280;68195;50.854;2.860;2023-05-07T07:27:34;101519.22;;;15.38;87.80
78845;BME280;68195;50.854;2.860;2023-05-07T07:29:59;101525.75;;;15.47;88.20
78845;BME280;68195;50.854;2.860;2023-05-07T07:32:25;101520.75;;;15.42;87.51
78845;BME280;68195;50.854;2.860;2023-05-07T07:34:51;101522.09;;;15.49;88.31
78845;BME280;68195;50.854;2.860;2023-05-07T07:37:16;101507.41;;;15.45;87.55
78845;BME280;68195;50.854;2.860;2023-05-07T07:39:41;101528.50;;;15.59;88.11
78845;BME280;68195;50.854;2.860;2023-05-07T07:42:09;101521.38;;;15.62;88.82
78845;BME280;68195;50.854;2.860;2023-05-07T07:44:37;101495.75;;;15.49;87.75
78845;BME280;68195;50.854;2.860;2023-05-07T07:47:04;101537.91;;;15.79;87.39
78845;BME280;68195;50.854;2.860;2023-05-07T07:49:30;101495.81;;;15.64;86.38
78845;BME280;68195;50.854;2.860;2023-05-07T07:51:55;101505.03;;;15.71;86.33
78845;BME280;68195;50.854;2.860;2023-05-07T07:54:23;101486.94;;;15.65;86.56
78845;BME280;68195;50.854;2.860;2023-05-07T07:56:51;101525.00;;;15.89;86.44
78845;BME280;68195;50.854;2.860;2023-05-07T07:59:21;101517.31;;;15.86;86.23
78845;BME280;68195;50.854;2.860;2023-05-07T08:01:46;101538.59;;;15.97;86.70
78845;BME280;68195;50.854;2.860;2023-05-07T08:04:15;101515.59;;;15.85;87.10
78845;BME280;68195;50.854;2.860;2023-05-07T08:06:40;101544.44;;;16.03;86.97
78845;BME280;68195;50.854;2.860;2023-05-07T08:09:08;101538.88;;;16.07;86.02
78845;BME280;68195;50.854;2.860;2023-05-07T08:11:34;101542.94;;;16.13;85.70
78845;BME280;68195;50.854;2.860;2023-05-07T08:13:59;101541.16;;;16.13;85.99
78845;BME280;68195;50.854;2.860;2023-05-07T08:16:25;101529.00;;;16.11;86.17
78845;BME280;68195;50.854;2.860;2023-05-07T08:18:53;101555.38;;;16.25;85.91
78845;BME280;68195;50.854;2.860;2023-05-07T08:21:18;101514.41;;;16.05;86.13
78845;BME280;68195;50.854;2.860;2023-05-07T08:23:44;101537.97;;;16.23;85.68
78845;BME280;68195;50.854;2.860;2023-05-07T08:26:09;101548.22;;;16.27;86.20
78845;BME280;68195;50.854;2.860;2023-05-07T08:28:35;101559.44;;;16.31;85.70
78845;BME280;68195;50.854;2.860;2023-05-07T08:31:00;101550.56;;;16.32;85.16
78845;BME280;68195;50.854;2.860;2023-05-07T08:33:26;101556.50;;;16.35;85.01
78845;BME280;68195;50.854;2.860;2023-05-07T08:35:52;101547.84;;;16.33;84.69
78845;BME280;68195;50.854;2.860;2023-05-07T08:38:17;101549.53;;;16.34;84.94
78845;BME280;68195;50.854;2.860;2023-05-07T08:40:42;101562.88;;;16.46;85.26
78845;BME280;68195;50.854;2.860;2023-05-07T08:43:13;101563.84;;;16.45;85.09
78845;BME280;68195;50.854;2.860;2023-05-07T08:45:40;101574.56;;;16.56;85.03
78845;BME280;68195;50.854;2.860;2023-05-07T08:48:09;101534.75;;;16.32;84.98
78845;BME280;68195;50.854;2.860;2023-05-07T08:50:38;101558.28;;;16.49;85.35
78845;BME280;68195;50.854;2.860;2023-05-07T08:53:05;101557.34;;;16.50;85.31
78845;BME280;68195;50.854;2.860;2023-05-07T08:55:31;101568.38;;;16.57;84.92
78845;BME280;68195;50.854;2.860;2023-05-07T08:57:59;101575.91;;;16.63;84.56
78845;BME280;68195;50.854;2.860;2023-05-07T09:00:24;101572.69;;;16.58;84.20
78845;BME280;68195;50.854;2.860;2023-05-07T09:02:50;101584.66;;;16.64;84.37
78845;BME280;68195;50.854;2.860;2023-05-07T09:05:18;101560.84;;;16.51;84.42
78845;BME280;68195;50.854;2.860;2023-05-07T09:07:43;101582.88;;;16.64;83.52
78845;BME280;68195;50.854;2.860;2023-05-07T09:10:12;101580.03;;;16.67;83.31
78845;BME280;68195;50.854;2.860;2023-05-07T09:12:38;101599.63;;;16.77;83.38
78845;BME280;68195;50.854;2.860;2023-05-07T09:15:05;101600.44;;;16.78;83.50
78845;BME280;68195;50.854;2.860;2023-05-07T09:17:30;101579.09;;;16.68;83.35
78845;BME280;68195;50.854;2.860;2023-05-07T09:19:56;101577.28;;;16.69;83.77
78845;BME280;68195;50.854;2.860;2023-05-07T09:22:21;101586.41;;;16.77;83.60
78845;BME280;68195;50.854;2.860;2023-05-07T09:24:48;101594.19;;;16.80;83.51
78845;BME280;68195;50.854;2.860;2023-05-07T09:27:13;101590.44;;;16.85;83.29
78845;BME280;68195;50.854;2.860;2023-05-07T09:29:39;101590.44;;;16.85;83.25
78845;BME280;68195;50.854;2.860;2023-05-07T09:32:08;101600.56;;;16.91;83.26
78845;BME280;68195;50.854;2.860;2023-05-07T09:34:36;101591.25;;;16.85;83.35
78845;BME280;68195;50.854;2.860;2023-05-07T09:37:03;101597.75;;;16.94;83.32
78845;BME280;68195;50.854;2.860;2023-05-07T09:39:42;101602.44;;;16.89;83.45
78845;BME280;68195;50.854;2.860;2023-05-07T09:42:10;101606.13;;;16.86;83.53
78845;BME280;68195;50.854;2.860;2023-05-07T09:44:39;101585.50;;;16.78;83.44
78845;BME280;68195;50.854;2.860;2023-05-07T09:47:05;101599.94;;;16.87;83.62
78845;BME280;68195;50.854;2.860;2023-05-07T09:49:35;101596.63;;;16.84;83.12
78845;BME280;68195;50.854;2.860;2023-05-07T09:52:02;101600.97;;;16.85;82.98
78845;BME280;68195;50.854;2.860;2023-05-07T09:54:29;101606.34;;;16.83;83.31
78845;BME280;68195;50.854;2.860;2023-05-07T09:56:57;101578.44;;;16.65;83.40
78845;BME280;68195;50.854;2.860;2023-05-07T09:59:24;101613.50;;;16.81;83.53
78845;BME280;68195;50.854;2.860;2023-05-07T10:01:51;101577.31;;;16.54;83.46
78845;BME280;68195;50.854;2.860;2023-05-07T10:04:19;101610.81;;;16.67;84.17
78845;BME280;68195;50.854;2.860;2023-05-07T10:06:46;101587.97;;;16.53;83.90
78845;BME280;68195;50.854;2.860;2023-05-07T10:09:12;101616.00;;;16.68;84.12
78845;BME280;68195;50.854;2.860;2023-05-07T10:11:41;101582.09;;;16.48;84.27
78845;BME280;68195;50.854;2.860;2023-05-07T10:14:09;101609.44;;;16.61;84.29
78845;BME280;68195;50.854;2.860;2023-05-07T10:16:36;101613.97;;;16.59;84.28
78845;BME280;68195;50.854;2.860;2023-05-07T10:19:08;101630.34;;;16.64;84.23
78845;BME280;68195;50.854;2.860;2023-05-07T10:21:37;101625.06;;;16.64;84.93
78845;BME280;68195;50.854;2.860;2023-05-07T10:24:09;101628.44;;;16.66;85.23
78845;BME280;68195;50.854;2.860;2023-05-07T10:26:40;101605.06;;;16.46;86.09
78845;BME280;68195;50.854;2.860;2023-05-07T10:35:22;101617.41;;;16.45;87.95
78845;BME280;68195;50.854;2.860;2023-05-07T10:37:52;101623.16;;;16.52;87.44
78845;BME280;68195;50.854;2.860;2023-05-07T10:40:20;101616.22;;;16.51;88.21
78845;BME280;68195;50.854;2.860;2023-05-07T10:43:03;101643.72;;;16.61;87.93
78845;BME280;68195;50.854;2.860;2023-05-07T10:45:30;101648.03;;;16.62;87.56
78845;BME280;68195;50.854;2.860;2023-05-07T10:48:09;101648.72;;;16.66;87.62
78845;BME280;68195;50.854;2.860;2023-05-07T10:50:38;101646.16;;;16.64;87.56
78845;BME280;68195;50.854;2.860;2023-05-07T10:55:45;101618.63;;;16.54;87.29
78845;BME280;68195;50.854;2.860;2023-05-07T10:58:27;101650.31;;;16.68;87.76
78845;BME280;68195;50.854;2.860;2023-05-07T11:00:57;101640.50;;;16.70;88.03
78845;BME280;68195;50.854;2.860;2023-05-07T11:03:26;101639.38;;;16.60;87.95
78845;BME280;68195;50.854;2.860;2023-05-07T11:06:13;101609.34;;;16.48;87.61
78845;BME280;68195;50.854;2.860;2023-05-07T11:11:46;101658.59;;;16.76;88.04
78845;BME280;68195;50.854;2.860;2023-05-07T11:17:06;101644.00;;;16.71;87.87
78845;BME280;68195;50.854;2.860;2023-05-07T11:25:04;101642.94;;;16.73;88.59
78845;BME280;68195;50.854;2.860;2023-05-07T11:27:31;101616.97;;;16.53;88.15
78845;BME280;68195;50.854;2.860;2023-05-07T11:29:56;101621.50;;;16.65;87.88
78845;BME280;68195;50.854;2.860;2023-05-07T11:32:23;101658.81;;;16.88;87.84
78845;BME280;68195;50.854;2.860;2023-05-07T11:34:52;101653.34;;;16.91;87.62
78845;BME280;68195;50.854;2.860;2023-05-07T11:37:21;101653.34;;;16.91;87.25
78845;BME280;68195;50.854;2.860;2023-05-07T11:39:50;101653.16;;;16.94;86.95
78845;BME280;68195;50.854;2.860;2023-05-07T11:42:27;101656.34;;;16.99;87.71
78845;BME280;68195;50.854;2.860;2023-05-07T11:44:56;101645.16;;;16.95;87.43
78845;BME280;68195;50.854;2.860;2023-05-07T11:47:21;101661.16;;;17.07;87.10
78845;BME280;68195;50.854;2.860;2023-05-07T11:49:55;101656.63;;;17.09;86.82
78845;BME280;68195;50.854;2.860;2023-05-07T11:52:23;101571.09;;;16.55;86.67
78845;BME280;68195;50.854;2.860;2023-05-07T11:57:37;101587.38;;;16.76;86.63
78845;BME280;68195;50.854;2.860;2023-05-07T12:00:03;101568.91;;;16.62;86.97
78845;BME280;68195;50.854;2.860;2023-05-07T12:02:29;101634.09;;;17.17;86.43
78845;BME280;68195;50.854;2.860;2023-05-07T12:05:00;101649.72;;;17.20;85.53
78845;BME280;68195;50.854;2.860;2023-05-07T12:07:25;101622.22;;;17.10;85.31
78845;BME280;68195;50.854;2.860;2023-05-07T12:09:53;101660.25;;;17.35;84.58
78845;BME280;68195;50.854;2.860;2023-05-07T12:12:21;101539.53;;;16.68;84.32
78845;BME280;68195;50.854;2.860;2023-05-07T12:14:46;101655.34;;;17.43;84.42
78845;BME280;68195;50.854;2.860;2023-05-07T12:17:15;101652.22;;;17.36;83.39
78845;BME280;68195;50.854;2.860;2023-05-07T12:19:42;101639.91;;;17.37;83.83
78845;BME280;68195;50.854;2.860;2023-05-07T12:22:08;101647.97;;;17.48;83.51
78845;BME280;68195;50.854;2.860;2023-05-07T12:27:11;101635.69;;;17.47;83.27
78845;BME280;68195;50.854;2.860;2023-05-07T12:29:39;101502.69;;;16.67;82.11
78845;BME280;68195;50.854;2.860;2023-05-07T12:32:13;101623.72;;;17.56;82.23
78845;BME280;68195;50.854;2.860;2023-05-07T12:34:39;101666.63;;;17.87;81.91
78845;BME280;68195;50.854;2.860;2023-05-07T12:37:07;101608.19;;;17.64;81.21
78845;BME280;68195;50.854;2.860;2023-05-07T12:39:32;101600.66;;;17.58;81.16
78845;BME280;68195;50.854;2.860;2023-05-07T12:41:59;101628.06;;;17.70;81.09
78845;BME280;68195;50.854;2.860;2023-05-07T12:44:35;101671.56;;;18.06;81.02
78845;BME280;68195;50.854;2.860;2023-05-07T12:47:01;101622.69;;;17.71;80.42
78845;BME280;68195;50.854;2.860;2023-05-07T12:49:27;101675.88;;;18.07;80.74
78845;BME280;68195;50.854;2.860;2023-05-07T12:51:53;101655.03;;;18.02;80.70
78845;BME280;68195;50.854;2.860;2023-05-07T12:54:30;101679.19;;;18.23;79.29
78845;BME280;68195;50.854;2.860;2023-05-07T12:57:05;101666.16;;;18.20;79.44
78845;BME280;68195;50.854;2.860;2023-05-07T12:59:40;101677.81;;;18.30;78.76
78845;BME280;68195;50.854;2.860;2023-05-07T13:02:07;101562.22;;;17.67;79.03
78845;BME280;68195;50.854;2.860;2023-05-07T13:04:32;101681.88;;;18.36;77.50
78845;BME280;68195;50.854;2.860;2023-05-07T13:07:01;101648.41;;;18.22;78.75
78845;BME280;68195;50.854;2.860;2023-05-07T13:09:27;101656.56;;;18.32;77.82
78845;BME280;68195;50.854;2.860;2023-05-07T13:11:56;101678.69;;;18.43;76.96
78845;BME280;68195;50.854;2.860;2023-05-07T13:14:26;101674.03;;;18.34;77.48
78845;BME280;68195;50.854;2.860;2023-05-07T13:16:53;101613.59;;;18.02;77.84
78845;BME280;68195;50.854;2.860;2023-05-07T13:19:19;101643.22;;;18.20;78.28